createdAt,value
2022-10-17T00:08:09.481Z,8.2
2022-10-17T00:18:09.487Z,6.2
2022-10-17T00:28:09.481Z,6.8
2022-10-17T00:48:09.488Z,7.8
2022-10-17T00:58:09.506Z,7.0
2022-10-17T01:08:09.497Z,8.1
2022-10-17T01:18:09.501Z,5.9
2022-10-17T01:28:09.514Z,6.7
2022-10-17T01:38:09.518Z,6.8
2022-10-17T01:48:09.517Z,7.6
2022-10-17T01:58:09.525Z,8.0
2022-10-17T02:08:09.523Z,9.3
2022-10-17T02:18:09.550Z,7.8
2022-10-17T02:28:09.547Z,8.1
2022-10-17T02:48:34.212Z,8.2
2022-10-17T03:08:09.570Z,8.0
2022-10-17T03:18:34.220Z,8.1
2022-10-17T03:28:09.559Z,8.4
2022-10-17T03:38:58.904Z,8.6
2022-10-17T03:48:09.563Z,7.0
2022-10-17T03:58:09.567Z,8.9
2022-10-17T04:08:09.576Z,9.8
2022-10-17T04:18:09.628Z,7.7
2022-10-17T04:28:09.580Z,12.1
2022-10-17T04:38:09.602Z,8.6
2022-10-17T04:58:09.591Z,11.4
2022-10-17T05:08:09.599Z,8.9
2022-10-17T05:18:34.268Z,6.5
2022-10-17T05:28:09.616Z,8.6
2022-10-17T05:38:34.277Z,7.8
2022-10-17T05:48:34.284Z,9.1
2022-10-17T06:08:09.632Z,6.8
2022-10-17T06:18:09.660Z,9.5
2022-10-17T06:28:34.383Z,8.6
2022-10-17T06:38:09.634Z,7.7
2022-10-17T06:48:09.643Z,8.2
2022-10-17T06:58:09.648Z,7.2
2022-10-17T07:08:09.646Z,6.7
2022-10-17T07:28:09.652Z,7.8
2022-10-17T07:38:09.683Z,11.3
2022-10-17T07:48:09.663Z,7.8
2022-10-17T07:58:09.666Z,8.9
2022-10-17T08:08:09.666Z,11.1
2022-10-17T08:18:09.672Z,7.9
2022-10-17T08:28:34.447Z,7.8
2022-10-17T08:38:12.239Z,8.3
2022-10-17T08:48:34.352Z,8.5
2022-10-17T08:58:09.688Z,5.6
2022-10-17T09:08:09.700Z,7.4
2022-10-17T09:18:09.693Z,7.8
2022-10-17T09:28:09.699Z,6.5
2022-10-17T09:38:09.706Z,5.7
2022-10-17T09:48:34.374Z,7.0
2022-10-17T09:58:34.378Z,6.2
2022-10-17T10:08:09.724Z,10.6
2022-10-17T10:18:09.735Z,7.2
2022-10-17T10:38:09.731Z,6.5
2022-10-17T10:48:09.740Z,8.9
2022-10-17T10:58:09.737Z,6.9
2022-10-17T11:18:09.750Z,6.8
2022-10-17T11:28:09.748Z,6.6
2022-10-17T11:48:09.761Z,8.4
2022-10-17T11:58:09.765Z,8.0
2022-10-17T12:18:09.768Z,7.9
2022-10-17T12:28:09.773Z,10.4
2022-10-17T12:38:09.773Z,13.5
2022-10-17T12:48:09.784Z,12.3
2022-10-17T12:58:09.786Z,11.0
2022-10-17T13:18:09.798Z,10.5
2022-10-17T13:28:09.803Z,9.9
2022-10-17T13:48:09.810Z,11.7
2022-10-17T13:58:09.815Z,10.1
2022-10-17T14:08:13.048Z,14.6
2022-10-17T14:28:09.820Z,11.9
2022-10-17T14:38:09.821Z,11.3
2022-10-17T14:48:09.833Z,8.7
2022-10-17T14:58:09.842Z,11.4
2022-10-17T15:08:09.846Z,9.6
2022-10-17T15:18:09.840Z,9.2
2022-10-17T15:28:34.540Z,13.1
2022-10-17T15:38:59.198Z,10.2
2022-10-17T15:48:09.849Z,10.3
2022-10-17T15:58:34.523Z,10.2
2022-10-17T16:08:09.863Z,14.0
2022-10-17T16:18:34.547Z,12.0
2022-10-17T16:28:09.867Z,15.3
2022-10-17T16:38:34.538Z,11.9
2022-10-17T16:48:09.873Z,13.2
2022-10-17T16:58:09.985Z,12.8
2022-10-17T17:08:12.477Z,11.0
2022-10-17T17:18:10.471Z,13.6
2022-10-17T17:28:34.638Z,11.4
2022-10-17T17:38:34.555Z,12.3
2022-10-17T17:48:09.898Z,14.7
2022-10-17T17:58:09.924Z,12.3
2022-10-17T18:18:09.913Z,14.1
2022-10-17T18:28:09.914Z,15.3
2022-10-17T18:38:34.592Z,13.4
2022-10-17T18:48:09.923Z,12.4
2022-10-17T18:58:09.920Z,11.9
2022-10-17T19:08:34.591Z,14.6
2022-10-17T19:18:34.601Z,14.6
2022-10-17T19:28:09.938Z,12.9
2022-10-17T19:38:09.958Z,14.2
2022-10-17T19:48:09.933Z,15.0
2022-10-17T19:58:09.941Z,15.1
2022-10-17T20:48:09.968Z,10.8
2022-10-17T20:58:59.301Z,10.3
2022-10-17T21:08:09.977Z,13.8
2022-10-17T21:18:09.970Z,10.2
2022-10-17T21:28:09.982Z,10.0
2022-10-17T21:38:09.973Z,10.1
2022-10-17T21:58:34.651Z,9.2
2022-10-17T22:08:09.996Z,9.7
2022-10-17T22:18:10.006Z,8.9
2022-10-17T22:28:59.395Z,8.7
2022-10-17T22:38:09.998Z,8.3
2022-10-17T22:48:10.001Z,15.7
2022-10-17T22:58:59.349Z,9.0
2022-10-17T23:08:59.350Z,10.2
2022-10-17T23:18:10.009Z,10.7
2022-10-17T23:28:10.029Z,8.6
2022-10-17T23:38:10.028Z,9.7
2022-10-17T23:58:10.026Z,8.6
